createdAt,value
2022-08-25T04:59:47.869Z,1003.15
2022-08-25T05:00:52.250Z,1003.10
2022-08-25T05:01:56.638Z,1003.12
2022-08-25T05:03:01.038Z,1003.14
2022-08-25T05:04:05.519Z,1003.09
2022-08-25T05:05:09.859Z,1003.05
2022-08-25T05:06:16.238Z,1003.07
2022-08-25T05:07:18.662Z,1003.06
2022-08-25T05:08:23.049Z,1003.10
2022-08-25T05:09:27.466Z,1003.11
2022-08-25T05:10:31.911Z,1003.09
2022-08-25T05:11:36.279Z,1003.05
2022-08-25T05:12:40.670Z,1003.06
2022-08-25T05:13:46.354Z,1003.08
2022-08-25T05:14:49.460Z,1003.09
2022-08-25T05:15:53.841Z,1003.11
2022-08-25T05:16:58.229Z,1003.11
2022-08-25T05:18:02.615Z,1003.08
2022-08-25T05:19:07.074Z,1003.08
2022-08-25T05:20:11.411Z,1003.05
2022-08-25T05:21:15.801Z,1003.04
2022-08-25T05:22:20.179Z,1003.04
2022-08-25T05:23:24.575Z,1003.04
2022-08-25T05:24:28.983Z,1003.07
2022-08-25T05:25:33.374Z,1003.13
2022-08-25T05:26:37.753Z,1003.08
2022-08-25T05:27:42.165Z,1003.06
2022-08-25T05:28:46.539Z,1003.08
2022-08-25T05:29:50.953Z,1003.09
2022-08-25T05:30:56.183Z,1003.10
2022-08-25T05:32:00.584Z,1003.12
2022-08-25T05:33:04.932Z,1003.11
2022-08-25T05:34:09.339Z,1003.13
2022-08-25T05:35:13.720Z,1003.12
2022-08-25T05:36:18.088Z,1003.15
2022-08-25T05:37:22.485Z,1003.15
2022-08-25T05:38:26.876Z,1003.15
2022-08-25T05:39:31.275Z,1003.14
2022-08-25T05:40:35.662Z,1003.13
2022-08-25T05:41:40.047Z,1003.11
2022-08-25T05:42:44.426Z,1003.08
2022-08-25T05:43:48.821Z,1003.07
2022-08-25T05:44:53.287Z,1003.11
2022-08-25T05:45:57.720Z,1003.08
2022-08-25T05:47:03.046Z,1003.09
2022-08-25T05:48:07.420Z,1003.10
2022-08-25T05:49:11.897Z,1003.09
2022-08-25T05:50:16.342Z,1003.08
2022-08-25T05:51:20.716Z,1003.10
